createdAt,value
2023-01-07T00:02:09.702Z,101062.53
2023-01-07T00:04:37.567Z,101059.41
2023-01-07T00:07:05.454Z,101057.47
2023-01-07T00:09:33.425Z,101047.06
2023-01-07T00:12:01.282Z,101055.47
2023-01-07T00:14:30.494Z,101044.84
2023-01-07T00:16:58.405Z,101050.81
2023-01-07T00:19:26.425Z,101050.78
2023-01-07T00:21:54.893Z,101061.22
2023-01-07T00:24:22.808Z,101055.94
2023-01-07T00:26:50.728Z,101056.63
2023-01-07T00:29:19.250Z,101053.00
2023-01-07T00:31:48.529Z,101044.25
2023-01-07T00:34:16.795Z,101050.31
2023-01-07T00:36:46.411Z,101049.59
2023-01-07T00:39:17.231Z,101053.06
2023-01-07T00:42:06.500Z,101051.34
2023-01-07T00:44:34.882Z,101049.59
2023-01-07T00:47:04.202Z,101046.06
2023-01-07T00:49:32.119Z,101045.16
2023-01-07T00:52:00.138Z,101049.50
2023-01-07T00:54:28.158Z,101053.09
2023-01-07T00:56:56.419Z,101049.59
2023-01-07T00:59:24.378Z,101042.47
2023-01-07T01:01:52.668Z,101042.53
2023-01-07T01:04:22.088Z,101039.06
2023-01-07T01:06:50.021Z,101037.03
2023-01-07T01:09:20.439Z,101035.91
2023-01-07T01:11:48.362Z,101039.16
2023-01-07T01:14:16.255Z,101031.25
2023-01-07T01:16:46.857Z,101034.63
2023-01-07T01:19:14.866Z,101030.34
2023-01-07T01:21:44.121Z,101022.38
2023-01-07T01:24:12.065Z,101027.69
2023-01-07T01:26:39.938Z,101030.16
2023-01-07T01:29:07.875Z,101029.47
2023-01-07T01:31:35.956Z,101019.84
2023-01-07T01:34:04.642Z,101027.75
2023-01-07T01:36:33.407Z,101015.41
2023-01-07T01:39:02.809Z,101036.44
2023-01-07T01:41:33.658Z,101026.00
2023-01-07T01:44:02.385Z,101032.19
2023-01-07T01:46:35.790Z,101033.97
2023-01-07T01:49:08.000Z,101027.97
2023-01-07T01:51:41.881Z,101039.53
2023-01-07T01:54:15.388Z,101034.19
2023-01-07T01:56:50.789Z,101028.97
2023-01-07T01:59:21.152Z,101024.28
2023-01-07T02:01:49.517Z,101028.66
2023-01-07T02:04:22.061Z,101026.00
2023-01-07T02:06:54.941Z,101025.94
2023-01-07T02:09:24.978Z,101028.56
2023-01-07T02:12:01.767Z,101017.97
2023-01-07T02:14:58.459Z,101023.97
2023-01-07T02:17:39.767Z,101022.09
2023-01-07T02:20:30.748Z,101014.28
2023-01-07T02:23:35.245Z,101019.50
2023-01-07T02:26:23.009Z,101018.66
2023-01-07T02:29:12.086Z,101004.56
2023-01-07T02:32:18.788Z,101013.34
2023-01-07T02:34:56.375Z,101008.88
2023-01-07T02:37:33.165Z,101008.84
2023-01-07T02:40:10.855Z,101007.78
2023-01-07T02:42:48.227Z,101006.13
2023-01-07T02:45:22.897Z,100995.59
2023-01-07T02:47:55.680Z,100975.56
2023-01-07T02:50:25.074Z,101001.81
2023-01-07T02:52:53.032Z,100986.09
2023-01-07T02:55:26.473Z,100993.97
2023-01-07T02:58:21.439Z,100990.47
2023-01-07T03:01:21.481Z,100964.53
2023-01-07T03:04:04.604Z,100983.75
2023-01-07T03:06:51.979Z,100993.44
2023-01-07T03:09:30.368Z,100983.84
2023-01-07T03:12:06.740Z,100983.06
2023-01-07T03:14:40.935Z,100984.66
2023-01-07T03:17:13.346Z,100975.66
2023-01-07T03:19:45.945Z,100969.28
2023-01-07T03:22:18.836Z,100967.59
2023-01-07T03:24:49.570Z,100968.41
2023-01-07T03:27:21.032Z,100964.78
2023-01-07T03:29:49.372Z,100965.72
2023-01-07T03:32:23.411Z,100962.13
2023-01-07T03:34:52.298Z,100962.88
2023-01-07T03:37:23.448Z,100961.16
2023-01-07T03:39:52.706Z,100956.00
2023-01-07T03:42:42.292Z,100966.38
2023-01-07T03:45:18.339Z,100958.41
2023-01-07T03:47:49.648Z,100965.47
2023-01-07T03:50:19.082Z,100967.09
2023-01-07T03:52:50.803Z,100940.84
2023-01-07T03:55:20.408Z,100958.06
2023-01-07T03:57:50.343Z,100956.16
2023-01-07T04:00:18.606Z,100950.81
2023-01-07T04:02:54.793Z,100949.09
2023-01-07T04:05:27.288Z,100936.94
2023-01-07T04:07:56.796Z,100941.09
2023-01-07T04:10:26.371Z,100941.94
2023-01-07T04:12:54.385Z,100938.41
2023-01-07T04:15:22.361Z,100938.22
2023-01-07T04:17:50.287Z,100926.06
2023-01-07T04:20:18.893Z,100934.66
2023-01-07T04:22:46.883Z,100927.50
2023-01-07T04:25:16.467Z,100920.47
2023-01-07T04:27:45.673Z,100919.50
2023-01-07T04:30:13.972Z,100915.06
2023-01-07T04:32:42.017Z,100917.00
2023-01-07T04:35:11.367Z,100904.56
2023-01-07T04:37:40.017Z,100911.50
2023-01-07T04:40:09.563Z,100907.09
2023-01-07T04:42:39.758Z,100888.78
2023-01-07T04:45:10.147Z,100904.72
2023-01-07T04:47:38.116Z,100901.09
2023-01-07T04:50:08.171Z,100897.41
2023-01-07T04:52:37.672Z,100907.25
2023-01-07T04:55:07.395Z,100905.47
2023-01-07T04:57:35.312Z,100899.25
2023-01-07T05:00:05.578Z,100892.16
2023-01-07T05:02:34.073Z,100895.66
2023-01-07T05:05:01.994Z,100886.72
2023-01-07T05:07:30.067Z,100889.25
2023-01-07T05:09:59.048Z,100883.88
2023-01-07T05:12:27.160Z,100890.97
2023-01-07T05:14:55.233Z,100885.81
2023-01-07T05:17:24.771Z,100885.84
2023-01-07T05:19:53.002Z,100857.50
2023-01-07T05:22:21.015Z,100881.41
2023-01-07T05:24:49.688Z,100887.81
2023-01-07T05:27:18.653Z,100886.03
2023-01-07T05:29:46.594Z,100885.34
2023-01-07T05:32:14.515Z,100881.13
2023-01-07T05:34:44.096Z,100885.44
2023-01-07T05:37:12.006Z,100888.94
2023-01-07T05:39:42.081Z,100886.44
2023-01-07T05:42:10.343Z,100871.56
2023-01-07T05:44:38.279Z,100891.59
2023-01-07T05:47:06.214Z,100880.16
2023-01-07T05:49:34.313Z,100879.38
2023-01-07T05:52:03.636Z,100885.75
2023-01-07T05:54:31.603Z,100875.22
2023-01-07T05:56:59.468Z,100876.38
2023-01-07T05:59:27.364Z,100881.94
2023-01-07T06:01:55.241Z,100885.69
2023-01-07T06:04:23.106Z,100881.50
2023-01-07T06:06:51.122Z,100885.34
2023-01-07T06:09:20.401Z,100887.34
2023-01-07T06:11:48.276Z,100879.63
2023-01-07T06:14:16.333Z,100882.44
2023-01-07T06:16:44.243Z,100884.50
2023-01-07T06:19:12.236Z,100888.09
2023-01-07T06:21:40.264Z,100886.47
2023-01-07T06:24:08.757Z,100888.28
2023-01-07T06:26:37.980Z,100888.41
2023-01-07T06:29:05.856Z,100886.47
2023-01-07T06:31:33.979Z,100890.13
2023-01-07T06:34:01.864Z,100875.22
2023-01-07T06:36:29.721Z,100877.88
2023-01-07T06:38:57.604Z,100875.94
2023-01-07T06:41:25.471Z,100870.63
2023-01-07T06:43:54.807Z,100881.59
2023-01-07T06:46:22.856Z,100876.53
2023-01-07T06:48:50.761Z,100869.41
2023-01-07T06:51:18.641Z,100861.91
2023-01-07T06:53:46.501Z,100865.22
2023-01-07T06:56:14.408Z,100860.53
2023-01-07T06:58:42.346Z,100857.03
2023-01-07T07:01:12.096Z,100863.31
2023-01-07T07:03:40.153Z,100860.53
2023-01-07T07:06:08.673Z,100862.25
2023-01-07T07:08:36.589Z,100846.34
2023-01-07T07:11:04.514Z,100849.09
2023-01-07T07:13:32.399Z,100850.72
2023-01-07T07:16:00.364Z,100850.09
2023-01-07T07:18:30.555Z,100853.59
2023-01-07T07:20:58.698Z,100849.53
2023-01-07T07:23:26.802Z,100869.91
2023-01-07T07:25:54.833Z,100862.97
2023-01-07T07:28:22.650Z,100864.97
2023-01-07T07:30:50.561Z,100864.88
2023-01-07T07:33:19.865Z,100860.19
2023-01-07T07:35:50.038Z,100861.22
2023-01-07T07:38:19.012Z,100868.16
2023-01-07T07:40:46.931Z,100868.16
2023-01-07T07:43:14.980Z,100866.50
2023-01-07T07:45:43.166Z,100870.00
2023-01-07T07:48:13.225Z,100866.47
2023-01-07T07:50:41.187Z,100859.66
2023-01-07T07:53:11.416Z,100859.13
2023-01-07T07:55:40.143Z,100865.38
2023-01-07T07:58:08.087Z,100862.94
2023-01-07T08:00:36.194Z,100864.81
2023-01-07T08:03:04.462Z,100840.44
2023-01-07T08:05:32.996Z,100861.56
2023-01-07T08:08:01.321Z,100853.78
2023-01-07T08:10:30.765Z,100860.78
2023-01-07T08:12:58.654Z,100849.28
2023-01-07T08:15:26.524Z,100851.84
2023-01-07T08:18:01.490Z,100843.13
2023-01-07T08:20:29.681Z,100844.88
2023-01-07T08:23:00.167Z,100843.19
2023-01-07T08:25:28.160Z,100839.59
2023-01-07T08:27:58.204Z,100834.44
2023-01-07T08:30:29.481Z,100842.19
2023-01-07T08:32:57.790Z,100842.97
2023-01-07T08:35:25.808Z,100847.16
2023-01-07T08:37:54.230Z,100835.69
2023-01-07T08:40:22.183Z,100834.56
2023-01-07T08:42:50.255Z,100834.56
2023-01-07T08:45:19.558Z,100839.47
2023-01-07T08:47:48.469Z,100830.63
2023-01-07T08:50:16.469Z,100841.94
2023-01-07T08:52:46.731Z,100850.63
2023-01-07T08:55:14.796Z,100840.69
2023-01-07T08:57:42.750Z,100845.69
2023-01-07T09:00:12.968Z,100851.38
2023-01-07T09:02:43.851Z,100823.16
2023-01-07T09:05:12.357Z,100825.25
2023-01-07T09:07:40.320Z,100832.75
2023-01-07T09:10:10.116Z,100830.69
2023-01-07T09:12:38.101Z,100841.88
2023-01-07T09:15:07.075Z,100831.94
2023-01-07T09:17:34.983Z,100822.41
2023-01-07T09:20:05.018Z,100825.84
2023-01-07T09:22:33.771Z,100806.75
2023-01-07T09:25:01.682Z,100826.63
2023-01-07T09:27:29.757Z,100781.75
2023-01-07T09:29:58.633Z,100827.03
2023-01-07T09:32:26.885Z,100828.03
2023-01-07T09:34:54.827Z,100829.81
2023-01-07T09:37:24.123Z,100818.06
2023-01-07T09:39:52.015Z,100811.22
2023-01-07T09:42:25.490Z,100821.63
2023-01-07T09:45:01.136Z,100808.44
2023-01-07T09:47:30.877Z,100814.53
2023-01-07T09:50:02.881Z,100816.31
2023-01-07T09:52:37.005Z,100820.63
2023-01-07T09:55:13.549Z,100817.00
2023-01-07T09:57:41.540Z,100820.41
2023-01-07T10:00:16.731Z,100815.91
2023-01-07T10:02:56.650Z,100815.72
2023-01-07T10:05:34.463Z,100812.81
2023-01-07T10:08:30.836Z,100802.63
2023-01-07T10:11:07.784Z,100809.16
2023-01-07T10:13:49.170Z,100801.47
2023-01-07T10:16:23.225Z,100800.06
2023-01-07T10:18:59.821Z,100788.25
2023-01-07T10:21:37.947Z,100792.28
2023-01-07T10:24:21.024Z,100794.81
2023-01-07T10:26:53.970Z,100777.84
2023-01-07T10:29:26.446Z,100776.69
2023-01-07T10:31:59.038Z,100774.47
2023-01-07T10:34:32.163Z,100779.56
2023-01-07T10:37:04.162Z,100771.38
2023-01-07T10:39:43.559Z,100773.03
2023-01-07T10:42:18.836Z,100765.91
2023-01-07T10:45:15.413Z,100767.59
2023-01-07T10:47:59.641Z,100762.00
2023-01-07T10:50:38.734Z,100764.97
2023-01-07T10:53:19.260Z,100761.34
2023-01-07T10:55:58.823Z,100742.63
2023-01-07T10:58:39.356Z,100741.91
2023-01-07T11:01:08.545Z,100746.41
2023-01-07T11:03:38.805Z,100736.69
2023-01-07T11:06:12.647Z,100730.72
2023-01-07T11:08:42.416Z,100686.38
2023-01-07T11:11:17.090Z,100706.38
2023-01-07T11:13:56.885Z,100725.81
2023-01-07T11:16:28.453Z,100716.03
2023-01-07T11:19:01.723Z,100696.03
2023-01-07T11:21:42.488Z,100718.59
2023-01-07T11:24:31.813Z,100714.19
2023-01-07T11:27:05.535Z,100703.47
2023-01-07T11:29:40.063Z,100689.22
2023-01-07T11:32:26.178Z,100693.94
2023-01-07T11:35:00.825Z,100687.84
2023-01-07T11:37:38.303Z,100671.94
2023-01-07T11:40:20.283Z,100661.91
2023-01-07T11:42:51.529Z,100683.44
2023-01-07T11:45:21.201Z,100681.72
2023-01-07T11:47:56.775Z,100661.25
2023-01-07T11:50:28.117Z,100658.63
2023-01-07T11:52:58.426Z,100652.19
2023-01-07T11:55:26.856Z,100643.53
2023-01-07T11:58:27.672Z,100647.69
2023-01-07T12:00:44.770Z,100643.06
2023-01-07T12:03:14.798Z,100634.56
2023-01-07T12:05:45.375Z,100636.75
2023-01-07T12:08:22.140Z,100633.22
2023-01-07T12:10:56.446Z,100633.03
2023-01-07T12:13:28.765Z,100629.72
2023-01-07T12:15:59.890Z,100625.97
2023-01-07T12:18:55.381Z,100615.22
2023-01-07T12:21:35.073Z,100621.38
2023-01-07T12:24:28.716Z,100612.28
2023-01-07T12:27:04.232Z,100614.47
2023-01-07T12:29:44.992Z,100608.66
2023-01-07T12:32:28.407Z,100614.28
2023-01-07T12:35:14.384Z,100614.81
2023-01-07T12:37:49.648Z,100616.22
2023-01-07T12:40:26.443Z,100606.44
2023-01-07T12:42:59.918Z,100596.00
2023-01-07T12:45:30.468Z,100588.22
2023-01-07T12:48:02.907Z,100586.59
2023-01-07T12:50:38.600Z,100584.31
2023-01-07T12:53:13.961Z,100587.84
2023-01-07T12:55:45.870Z,100584.38
2023-01-07T12:58:19.766Z,100577.47
2023-01-07T13:00:55.063Z,100572.94
2023-01-07T13:03:38.562Z,100572.16
2023-01-07T13:06:15.554Z,100555.72
2023-01-07T13:08:48.211Z,100566.19
2023-01-07T13:11:42.585Z,100564.50
2023-01-07T13:14:19.702Z,100548.06
2023-01-07T13:16:49.260Z,100553.94
2023-01-07T13:19:17.299Z,100557.63
2023-01-07T13:21:48.181Z,100547.91
2023-01-07T13:24:54.459Z,100536.69
2023-01-07T13:27:25.609Z,100540.91
2023-01-07T13:30:02.066Z,100540.00
2023-01-07T13:32:57.296Z,100534.53
2023-01-07T13:35:49.600Z,100528.19
2023-01-07T13:38:34.810Z,100519.56
2023-01-07T13:41:19.588Z,100514.91
2023-01-07T13:44:06.582Z,100513.28
2023-01-07T13:46:37.597Z,100514.97
2023-01-07T13:49:07.140Z,100501.47
2023-01-07T13:51:37.615Z,100505.75
2023-01-07T13:54:11.665Z,100496.69
2023-01-07T13:56:40.791Z,100433.88
2023-01-07T13:59:31.133Z,100488.13
2023-01-07T14:02:17.431Z,100489.13
2023-01-07T14:04:52.742Z,100482.16
2023-01-07T14:07:21.127Z,100484.75
2023-01-07T14:09:49.407Z,100482.16
2023-01-07T14:12:52.475Z,100474.44
2023-01-07T14:15:40.236Z,100470.97
2023-01-07T14:19:01.444Z,100476.34
2023-01-07T14:22:02.559Z,100482.63
2023-01-07T14:25:05.698Z,100475.84
2023-01-07T14:28:09.581Z,100469.50
2023-01-07T14:30:45.167Z,100472.31
2023-01-07T14:33:20.801Z,100437.72
2023-01-07T14:35:57.264Z,100464.47
2023-01-07T14:38:48.029Z,100460.16
2023-01-07T14:41:17.814Z,100458.28
2023-01-07T14:44:25.970Z,100463.59
2023-01-07T14:47:53.758Z,60620.00
2023-01-07T14:50:29.594Z,100459.38
2023-01-07T14:53:29.039Z,100451.66
2023-01-07T14:56:18.630Z,100446.19
2023-01-07T14:59:05.874Z,100455.97
2023-01-07T15:02:19.595Z,100455.97
2023-01-07T15:05:18.589Z,100430.16
2023-01-07T15:07:51.619Z,100434.00
2023-01-07T15:10:42.268Z,100398.00
2023-01-07T15:13:34.299Z,100427.53
2023-01-07T15:16:06.221Z,100425.94
2023-01-07T15:18:47.057Z,100426.81
2023-01-07T15:21:34.188Z,100426.81
2023-01-07T15:25:11.486Z,60620.00
2023-01-07T15:27:46.310Z,100408.50
2023-01-07T15:30:27.107Z,100391.41
2023-01-07T15:33:05.981Z,100389.47
2023-01-07T15:35:39.251Z,100394.47
2023-01-07T15:38:25.438Z,100388.69
2023-01-07T15:40:54.065Z,100395.19
2023-01-07T15:43:24.558Z,100381.97
2023-01-07T15:46:58.758Z,60620.00
2023-01-07T15:50:26.902Z,60620.00
2023-01-07T15:53:55.054Z,60620.00
2023-01-07T15:57:25.905Z,60620.00
2023-01-07T16:00:54.271Z,60620.00
2023-01-07T16:04:27.196Z,60620.00
2023-01-07T16:07:56.958Z,60620.00
2023-01-07T16:11:26.217Z,60620.00
2023-01-07T16:14:55.857Z,60620.00
2023-01-07T16:18:23.827Z,60620.00
2023-01-07T16:21:54.145Z,60620.00
2023-01-07T16:25:23.926Z,60620.00
2023-01-07T16:28:52.003Z,60620.00
2023-01-07T16:32:20.383Z,60620.00
2023-01-07T16:35:58.099Z,60620.00
2023-01-07T16:39:26.788Z,60620.00
2023-01-07T16:42:53.535Z,60620.00
2023-01-07T16:46:26.035Z,60620.00
2023-01-07T16:49:21.422Z,100381.97
2023-01-07T16:51:52.495Z,100294.44
2023-01-07T16:54:40.188Z,100292.31
2023-01-07T16:58:30.212Z,60620.00
2023-01-07T17:01:58.878Z,60620.00
2023-01-07T17:05:27.105Z,60620.00
2023-01-07T17:08:56.303Z,60620.00
2023-01-07T17:12:27.738Z,60620.00
2023-01-07T17:16:14.588Z,60620.00
2023-01-07T17:19:41.773Z,60620.00
2023-01-07T17:23:32.231Z,60620.00
2023-01-07T17:27:03.777Z,60620.00
2023-01-07T17:30:35.220Z,60620.00
2023-01-07T17:34:01.908Z,60620.00
2023-01-07T17:37:30.046Z,60620.00
2023-01-07T17:39:58.171Z,100264.31
2023-01-07T17:42:47.798Z,100264.31
2023-01-07T17:45:18.102Z,100260.84
2023-01-07T17:47:49.474Z,100254.97
2023-01-07T17:50:19.862Z,100252.38
2023-01-07T17:52:50.161Z,100257.19
2023-01-07T17:55:21.280Z,100247.81
2023-01-07T17:57:50.598Z,100239.00
2023-01-07T18:00:21.052Z,100238.22
2023-01-07T18:02:49.975Z,100239.81
2023-01-07T18:05:20.817Z,100234.91
2023-01-07T18:07:49.634Z,100225.28
2023-01-07T18:10:20.243Z,100226.91
2023-01-07T18:12:48.932Z,100216.56
2023-01-07T18:15:21.399Z,100219.13
2023-01-07T18:17:49.379Z,100219.38
2023-01-07T18:20:18.898Z,100208.41
2023-01-07T18:22:47.687Z,100212.09
2023-01-07T18:26:15.234Z,60620.00
2023-01-07T18:29:43.008Z,60620.00
2023-01-07T18:33:10.788Z,60620.00
2023-01-07T18:36:38.009Z,60620.00
2023-01-07T18:40:05.624Z,60620.00
2023-01-07T18:43:33.471Z,60620.00
2023-01-07T18:47:01.365Z,60620.00
2023-01-07T18:50:27.943Z,60620.00
2023-01-07T18:53:54.496Z,60620.00
2023-01-07T18:56:22.717Z,100212.09
2023-01-07T19:03:14.194Z,60620.00
2023-01-07T19:05:42.144Z,100161.31
2023-01-07T19:08:18.899Z,100161.31
2023-01-07T19:10:47.882Z,100181.81
2023-01-07T19:13:16.008Z,100167.16
2023-01-07T19:15:53.034Z,100167.16
2023-01-07T19:18:22.791Z,100166.91
2023-01-07T19:20:50.763Z,100168.84
2023-01-07T19:23:18.930Z,100171.69
2023-01-07T19:25:57.750Z,100170.09
2023-01-07T19:28:25.806Z,100163.75
2023-01-07T19:30:53.866Z,100166.75
2023-01-07T19:33:23.121Z,100163.13
2023-01-07T19:35:51.195Z,100157.19
2023-01-07T19:38:19.756Z,100167.81
2023-01-07T19:40:50.926Z,100167.81
2023-01-07T19:43:18.965Z,100170.88
2023-01-07T19:45:54.256Z,100163.44
2023-01-07T19:48:24.532Z,100150.81
2023-01-07T19:50:57.669Z,100165.44
2023-01-07T19:53:25.793Z,100152.84
2023-01-07T19:55:54.507Z,100145.81
2023-01-07T19:58:22.648Z,100140.03
2023-01-07T20:00:50.875Z,100136.50
2023-01-07T20:03:18.967Z,100133.59
2023-01-07T20:05:48.190Z,100067.75
2023-01-07T20:08:16.156Z,100126.78
2023-01-07T20:10:44.067Z,100113.28
2023-01-07T20:13:12.086Z,100112.16
2023-01-07T20:15:39.998Z,100100.91
2023-01-07T20:18:08.008Z,100104.81
2023-01-07T20:20:36.295Z,100076.47
2023-01-07T20:23:05.800Z,100087.19
2023-01-07T20:25:33.687Z,100092.50
2023-01-07T20:28:01.892Z,100086.03
2023-01-07T20:30:29.872Z,100075.91
2023-01-07T20:32:57.920Z,100088.53
2023-01-07T20:35:26.085Z,100088.19
2023-01-07T20:37:54.222Z,100069.94
2023-01-07T20:40:23.539Z,100066.28
2023-01-07T20:42:51.449Z,100069.19
2023-01-07T20:45:19.381Z,100049.25
2023-01-07T20:47:47.383Z,100051.25
2023-01-07T20:50:15.394Z,100043.91
2023-01-07T20:52:43.386Z,100044.47
2023-01-07T20:55:11.488Z,99987.28
2023-01-07T20:57:40.809Z,100036.97
2023-01-07T21:00:10.218Z,100045.97
2023-01-07T21:02:38.399Z,100042.53
2023-01-07T21:05:07.173Z,100044.84
2023-01-07T21:07:35.149Z,100031.84
2023-01-07T21:10:03.222Z,100039.03
2023-01-07T21:12:31.358Z,100033.31
2023-01-07T21:15:00.675Z,100032.50
2023-01-07T21:17:28.689Z,100035.69
2023-01-07T21:19:56.722Z,100039.88
2023-01-07T21:22:24.803Z,100043.56
2023-01-07T21:24:53.425Z,100031.75
2023-01-07T21:27:21.289Z,100044.94
2023-01-07T21:29:50.993Z,100041.31
2023-01-07T21:32:20.516Z,100034.22
2023-01-07T21:34:48.508Z,100037.81
2023-01-07T21:37:16.428Z,100041.75
2023-01-07T21:39:44.627Z,100032.34
2023-01-07T21:42:12.654Z,100029.69
2023-01-07T21:44:40.582Z,100030.22
2023-01-07T21:47:08.566Z,100024.28
2023-01-07T21:49:38.003Z,100020.31
2023-01-07T21:52:06.271Z,100012.44
2023-01-07T21:55:26.271Z,60620.00
2023-01-07T21:57:54.190Z,99998.63
2023-01-07T22:00:30.975Z,99998.63
2023-01-07T22:04:01.561Z,60620.00
2023-01-07T22:06:33.244Z,100004.25
2023-01-07T22:09:02.886Z,100011.50
2023-01-07T22:12:29.347Z,60620.00
2023-01-07T22:15:56.160Z,60620.00
2023-01-07T22:18:24.126Z,100003.44
2023-01-07T22:20:56.004Z,100009.41
2023-01-07T22:24:23.776Z,60620.00
2023-01-07T22:27:50.263Z,60620.00
2023-01-07T22:30:19.724Z,99988.91
2023-01-07T22:32:47.634Z,100002.75
2023-01-07T22:35:15.632Z,100001.63
2023-01-07T22:37:43.749Z,100005.13
2023-01-07T22:40:14.387Z,100007.22
2023-01-07T22:42:45.701Z,100006.47
2023-01-07T22:45:18.605Z,99981.09
2023-01-07T22:47:50.975Z,99995.28
2023-01-07T22:50:19.575Z,99953.16
2023-01-07T22:52:48.466Z,99983.66
2023-01-07T22:55:18.514Z,99982.97
2023-01-07T22:57:46.662Z,99989.19
2023-01-07T23:00:18.187Z,99987.59
2023-01-07T23:02:46.150Z,99980.56
2023-01-07T23:05:14.287Z,99962.38
2023-01-07T23:07:42.227Z,99981.78
2023-01-07T23:10:10.754Z,99968.63
2023-01-07T23:12:40.100Z,99969.34
2023-01-07T23:15:08.829Z,99957.19
2023-01-07T23:17:36.791Z,99969.53
2023-01-07T23:20:05.272Z,99952.47
2023-01-07T23:22:33.331Z,99941.00
2023-01-07T23:25:01.216Z,99947.28
2023-01-07T23:27:29.094Z,99941.00
2023-01-07T23:29:58.954Z,99944.28
2023-01-07T23:32:26.984Z,99935.81
2023-01-07T23:34:54.920Z,99932.88
2023-01-07T23:37:25.353Z,99905.41
2023-01-07T23:39:53.193Z,99930.16
2023-01-07T23:42:21.077Z,99934.63
2023-01-07T23:44:49.086Z,99931.19
2023-01-07T23:47:18.336Z,99922.44
2023-01-07T23:49:46.268Z,99926.72
2023-01-07T23:52:14.247Z,99919.00
2023-01-07T23:54:42.234Z,99917.56
2023-01-07T23:57:10.447Z,99919.56
2023-01-07T23:59:38.760Z,99925.03
